sensor_id;sensor_type;location;lat;lon;timestamp;pressure;altitude;pressure_sealevel;temperature;humidity
48404;BME280;34202;52.536;6.042;2023-09-12T00:02:01;101358.23;;;20.57;100.00
48404;BME280;34202;52.536;6.042;2023-09-12T00:07:02;101371.70;;;20.56;100.00
48404;BME280;34202;52.536;6.042;2023-09-12T00:12:03;101378.94;;;20.57;100.00
48404;BME280;34202;52.536;6.042;2023-09-12T00:17:03;101379.09;;;20.57;100.00
48404;BME280;34202;52.536;6.042;2023-09-12T00:22:03;101378.61;;;20.56;100.00
48404;BME280;34202;52.536;6.042;2023-09-12T00:27:04;101364.65;;;20.54;100.00
48404;BME280;34202;52.536;6.042;2023-09-12T00:32:05;101359.89;;;20.54;100.00
48404;BME280;34202;52.536;6.042;2023-09-12T00:37:06;101359.05;;;20.53;100.00
48404;BME280;34202;52.536;6.042;2023-09-12T00:42:06;101360.52;;;20.51;100.00
48404;BME280;34202;52.536;6.042;2023-09-12T00:47:08;101356.34;;;20.48;100.00
48404;BME280;34202;52.536;6.042;2023-09-12T00:52:10;101354.80;;;20.45;100.00
48404;BME280;34202;52.536;6.042;2023-09-12T00:57:13;101360.20;;;20.42;100.00
48404;BME280;34202;52.536;6.042;2023-09-12T01:02:14;101358.54;;;20.38;100.00
48404;BME280;34202;52.536;6.042;2023-09-12T01:07:15;101366.21;;;20.35;100.00
48404;BME280;34202;52.536;6.042;2023-09-12T01:12:15;101364.23;;;20.30;100.00
48404;BME280;34202;52.536;6.042;2023-09-12T01:17:17;101359.44;;;20.24;100.00
48404;BME280;34202;52.536;6.042;2023-09-12T01:27:48;101346.42;;;20.14;100.00
48404;BME280;34202;52.536;6.042;2023-09-12T01:32:52;101347.77;;;20.09;100.00
48404;BME280;34202;52.536;6.042;2023-09-12T01:37:52;101346.33;;;20.04;100.00
48404;BME280;34202;52.536;6.042;2023-09-12T01:42:53;101352.85;;;19.97;100.00
48404;BME280;34202;52.536;6.042;2023-09-12T01:47:56;101362.04;;;19.90;100.00
48404;BME280;34202;52.536;6.042;2023-09-12T01:52:57;101359.18;;;19.84;100.00
48404;BME280;34202;52.536;6.042;2023-09-12T01:57:58;101359.50;;;19.77;100.00
48404;BME280;34202;52.536;6.042;2023-09-12T02:02:59;101364.02;;;19.72;100.00
48404;BME280;34202;52.536;6.042;2023-09-12T02:07:59;101360.58;;;19.67;100.00
48404;BME280;34202;52.536;6.042;2023-09-12T02:13:02;101364.05;;;19.63;100.00
48404;BME280;34202;52.536;6.042;2023-09-12T02:18:03;101363.09;;;19.58;100.00
48404;BME280;34202;52.536;6.042;2023-09-12T02:23:03;101362.11;;;19.54;100.00
48404;BME280;34202;52.536;6.042;2023-09-12T02:28:04;101366.64;;;19.48;100.00
48404;BME280;34202;52.536;6.042;2023-09-12T02:33:04;101361.08;;;19.45;100.00
48404;BME280;34202;52.536;6.042;2023-09-12T02:38:05;101358.20;;;19.40;100.00
48404;BME280;34202;52.536;6.042;2023-09-12T02:43:05;101359.36;;;19.35;100.00
48404;BME280;34202;52.536;6.042;2023-09-12T02:48:06;101352.23;;;19.30;100.00
48404;BME280;34202;52.536;6.042;2023-09-12T02:53:06;101357.42;;;19.26;100.00
48404;BME280;34202;52.536;6.042;2023-09-12T02:58:07;101355.02;;;19.23;100.00
48404;BME280;34202;52.536;6.042;2023-09-12T03:03:07;101360.38;;;19.20;100.00
48404;BME280;34202;52.536;6.042;2023-09-12T03:08:09;101360.80;;;19.17;100.00
48404;BME280;34202;52.536;6.042;2023-09-12T03:13:11;101361.55;;;19.14;100.00
48404;BME280;34202;52.536;6.042;2023-09-12T03:18:12;101368.84;;;19.11;100.00
48404;BME280;34202;52.536;6.042;2023-09-12T03:23:13;101365.75;;;19.07;100.00
48404;BME280;34202;52.536;6.042;2023-09-12T03:28:13;101360.71;;;19.03;100.00
48404;BME280;34202;52.536;6.042;2023-09-12T03:33:13;101362.55;;;19.00;100.00
48404;BME280;34202;52.536;6.042;2023-09-12T03:38:14;101360.50;;;18.97;100.00
48404;BME280;34202;52.536;6.042;2023-09-12T03:43:14;101360.91;;;18.94;100.00
48404;BME280;34202;52.536;6.042;2023-09-12T03:48:15;101356.04;;;18.91;100.00
48404;BME280;34202;52.536;6.042;2023-09-12T03:53:15;101353.60;;;18.88;100.00
48404;BME280;34202;52.536;6.042;2023-09-12T03:58:16;101354.39;;;18.84;100.00
48404;BME280;34202;52.536;6.042;2023-09-12T04:03:16;101347.38;;;18.83;100.00
48404;BME280;34202;52.536;6.042;2023-09-12T04:08:17;101340.52;;;18.82;100.00
48404;BME280;34202;52.536;6.042;2023-09-12T04:13:17;101332.59;;;18.81;100.00
48404;BME280;34202;52.536;6.042;2023-09-12T04:18:17;101332.24;;;18.81;100.00
48404;BME280;34202;52.536;6.042;2023-09-12T04:23:18;101327.14;;;18.79;100.00
48404;BME280;34202;52.536;6.042;2023-09-12T04:28:18;101320.47;;;18.76;100.00
48404;BME280;34202;52.536;6.042;2023-09-12T04:33:19;101322.14;;;18.72;100.00
48404;BME280;34202;52.536;6.042;2023-09-12T04:38:19;101323.66;;;18.66;100.00
48404;BME280;34202;52.536;6.042;2023-09-12T04:43:21;101312.45;;;18.63;100.00
48404;BME280;34202;52.536;6.042;2023-09-12T04:48:21;101309.83;;;18.62;100.00
48404;BME280;34202;52.536;6.042;2023-09-12T04:53:21;101309.34;;;18.60;100.00
48404;BME280;34202;52.536;6.042;2023-09-12T04:58:22;101306.02;;;18.58;100.00
48404;BME280;34202;52.536;6.042;2023-09-12T05:03:22;101311.53;;;18.55;100.00
48404;BME280;34202;52.536;6.042;2023-09-12T05:08:23;101318.62;;;18.54;100.00
48404;BME280;34202;52.536;6.042;2023-09-12T05:13:24;101311.09;;;18.52;100.00
48404;BME280;34202;52.536;6.042;2023-09-12T05:18:24;101310.58;;;18.51;100.00
48404;BME280;34202;52.536;6.042;2023-09-12T05:23:25;101307.96;;;18.49;100.00
48404;BME280;34202;52.536;6.042;2023-09-12T05:28:25;101310.46;;;18.47;100.00
48404;BME280;34202;52.536;6.042;2023-09-12T05:33:25;101315.44;;;18.45;100.00
48404;BME280;34202;52.536;6.042;2023-09-12T05:38:26;101317.38;;;18.45;100.00
48404;BME280;34202;52.536;6.042;2023-09-12T05:43:26;101318.61;;;18.45;100.00
48404;BME280;34202;52.536;6.042;2023-09-12T05:48:27;101327.58;;;18.46;100.00
48404;BME280;34202;52.536;6.042;2023-09-12T05:53:27;101337.08;;;18.47;100.00
48404;BME280;34202;52.536;6.042;2023-09-12T05:58:27;101338.08;;;18.49;100.00
48404;BME280;34202;52.536;6.042;2023-09-12T06:03:28;101345.48;;;18.50;100.00
48404;BME280;34202;52.536;6.042;2023-09-12T06:08:29;101361.11;;;18.52;100.00
48404;BME280;34202;52.536;6.042;2023-09-12T06:13:29;101371.16;;;18.53;100.00
48404;BME280;34202;52.536;6.042;2023-09-12T06:18:30;101373.93;;;18.55;100.00
48404;BME280;34202;52.536;6.042;2023-09-12T06:23:31;101377.27;;;18.57;100.00
48404;BME280;34202;52.536;6.042;2023-09-12T06:28:31;101369.82;;;18.59;100.00
48404;BME280;34202;52.536;6.042;2023-09-12T06:33:32;101369.75;;;18.62;100.00
48404;BME280;34202;52.536;6.042;2023-09-12T06:38:32;101372.33;;;18.66;100.00
48404;BME280;34202;52.536;6.042;2023-09-12T06:43:33;101381.77;;;18.71;100.00
48404;BME280;34202;52.536;6.042;2023-09-12T06:48:33;101381.30;;;18.77;100.00
48404;BME280;34202;52.536;6.042;2023-09-12T06:53:34;101374.52;;;18.83;100.00
48404;BME280;34202;52.536;6.042;2023-09-12T06:58:35;101376.36;;;18.88;100.00
48404;BME280;34202;52.536;6.042;2023-09-12T07:03:36;101373.96;;;18.94;100.00
48404;BME280;34202;52.536;6.042;2023-09-12T07:08:37;101380.73;;;18.99;100.00
48404;BME280;34202;52.536;6.042;2023-09-12T07:13:37;101383.28;;;19.04;100.00
48404;BME280;34202;52.536;6.042;2023-09-12T07:18:38;101384.92;;;19.10;100.00
48404;BME280;34202;52.536;6.042;2023-09-12T07:23:38;101388.16;;;19.16;100.00
48404;BME280;34202;52.536;6.042;2023-09-12T07:28:38;101388.05;;;19.21;100.00
48404;BME280;34202;52.536;6.042;2023-09-12T07:33:39;101391.34;;;19.25;100.00
48404;BME280;34202;52.536;6.042;2023-09-12T07:38:40;101397.77;;;19.29;100.00
48404;BME280;34202;52.536;6.042;2023-09-12T07:43:42;101399.25;;;19.35;100.00
48404;BME280;34202;52.536;6.042;2023-09-12T07:48:42;101401.41;;;19.41;100.00
48404;BME280;34202;52.536;6.042;2023-09-12T07:53:43;101403.68;;;19.50;100.00
48404;BME280;34202;52.536;6.042;2023-09-12T07:58:44;101407.04;;;19.59;100.00
48404;BME280;34202;52.536;6.042;2023-09-12T08:03:44;101410.73;;;19.68;100.00
48404;BME280;34202;52.536;6.042;2023-09-12T08:08:45;101409.85;;;19.77;100.00
48404;BME280;34202;52.536;6.042;2023-09-12T08:13:48;101408.90;;;19.87;100.00
48404;BME280;34202;52.536;6.042;2023-09-12T08:18:49;101412.90;;;19.98;100.00
48404;BME280;34202;52.536;6.042;2023-09-12T08:23:49;101409.48;;;20.08;100.00
48404;BME280;34202;52.536;6.042;2023-09-12T08:28:49;101409.70;;;20.21;100.00
48404;BME280;34202;52.536;6.042;2023-09-12T08:33:50;101407.21;;;20.36;100.00
48404;BME280;34202;52.536;6.042;2023-09-12T08:38:50;101407.00;;;20.51;100.00
48404;BME280;34202;52.536;6.042;2023-09-12T08:43:51;101412.68;;;20.65;100.00
48404;BME280;34202;52.536;6.042;2023-09-12T08:48:52;101413.93;;;20.79;100.00
48404;BME280;34202;52.536;6.042;2023-09-12T08:53:55;101417.22;;;20.94;100.00
48404;BME280;34202;52.536;6.042;2023-09-12T08:58:56;101417.77;;;21.13;100.00
48404;BME280;34202;52.536;6.042;2023-09-12T09:03:57;101416.73;;;21.31;100.00
48404;BME280;34202;52.536;6.042;2023-09-12T09:09:00;101415.51;;;21.49;100.00
48404;BME280;34202;52.536;6.042;2023-09-12T09:14:02;101418.56;;;21.71;100.00
48404;BME280;34202;52.536;6.042;2023-09-12T09:19:04;101416.20;;;21.90;100.00
48404;BME280;34202;52.536;6.042;2023-09-12T09:24:12;101412.55;;;22.11;100.00
48404;BME280;34202;52.536;6.042;2023-09-12T09:29:21;101411.17;;;22.32;100.00
48404;BME280;34202;52.536;6.042;2023-09-12T09:34:21;101413.21;;;22.50;100.00
48404;BME280;34202;52.536;6.042;2023-09-12T09:39:26;101415.92;;;22.65;100.00
48404;BME280;34202;52.536;6.042;2023-09-12T09:44:27;101426.80;;;22.78;100.00
48404;BME280;34202;52.536;6.042;2023-09-12T09:49:31;101422.23;;;22.98;100.00
48404;BME280;34202;52.536;6.042;2023-09-12T09:54:34;101420.38;;;23.15;100.00
48404;BME280;34202;52.536;6.042;2023-09-12T09:59:34;101420.71;;;23.35;100.00
48404;BME280;34202;52.536;6.042;2023-09-12T10:04:35;101418.95;;;23.49;100.00
48404;BME280;34202;52.536;6.042;2023-09-12T10:09:36;101421.21;;;23.60;100.00
48404;BME280;34202;52.536;6.042;2023-09-12T10:14:38;101419.70;;;23.66;100.00
48404;BME280;34202;52.536;6.042;2023-09-12T10:19:54;101423.24;;;23.71;100.00
48404;BME280;34202;52.536;6.042;2023-09-12T10:24:56;101423.63;;;23.80;100.00
48404;BME280;34202;52.536;6.042;2023-09-12T10:29:57;101424.13;;;23.90;100.00
48404;BME280;34202;52.536;6.042;2023-09-12T10:35:00;101433.27;;;24.02;100.00
48404;BME280;34202;52.536;6.042;2023-09-12T10:40:04;101434.86;;;24.19;100.00
48404;BME280;34202;52.536;6.042;2023-09-12T10:45:08;101434.02;;;24.40;100.00
48404;BME280;34202;52.536;6.042;2023-09-12T10:50:09;101432.95;;;24.66;99.98
48404;BME280;34202;52.536;6.042;2023-09-12T10:55:16;101433.14;;;24.94;99.98
48404;BME280;34202;52.536;6.042;2023-09-12T11:00:18;101434.73;;;25.23;98.85
48404;BME280;34202;52.536;6.042;2023-09-12T11:10:28;101439.21;;;25.69;96.02
48404;BME280;34202;52.536;6.042;2023-09-12T11:15:31;101445.80;;;25.85;94.95
48404;BME280;34202;52.536;6.042;2023-09-12T11:21:00;101443.85;;;26.00;94.19
48404;BME280;34202;52.536;6.042;2023-09-12T11:26:07;101440.87;;;26.17;93.33
48404;BME280;34202;52.536;6.042;2023-09-12T11:31:10;101433.40;;;26.31;91.84
48404;BME280;34202;52.536;6.042;2023-09-12T11:36:13;101427.19;;;26.41;90.53
48404;BME280;34202;52.536;6.042;2023-09-12T11:41:14;101422.20;;;26.51;90.20
48404;BME280;34202;52.536;6.042;2023-09-12T11:46:15;101420.06;;;26.66;89.45
48404;BME280;34202;52.536;6.042;2023-09-12T11:51:15;101426.38;;;26.82;89.06
48404;BME280;34202;52.536;6.042;2023-09-12T11:56:16;101422.26;;;26.96;87.84
48404;BME280;34202;52.536;6.042;2023-09-12T12:01:16;101422.72;;;27.04;86.27
48404;BME280;34202;52.536;6.042;2023-09-12T12:06:17;101418.39;;;27.11;85.88
48404;BME280;34202;52.536;6.042;2023-09-12T12:11:18;101412.08;;;27.29;86.09
48404;BME280;34202;52.536;6.042;2023-09-12T12:16:18;101396.92;;;27.48;85.45
48404;BME280;34202;52.536;6.042;2023-09-12T12:21:19;101380.70;;;27.67;84.24
48404;BME280;34202;52.536;6.042;2023-09-12T12:26:20;101380.30;;;27.83;83.13
48404;BME280;34202;52.536;6.042;2023-09-12T12:31:20;101379.75;;;27.97;82.52
48404;BME280;34202;52.536;6.042;2023-09-12T12:36:24;101377.05;;;28.03;80.26
48404;BME280;34202;52.536;6.042;2023-09-12T12:41:28;101378.98;;;28.04;78.56
48404;BME280;34202;52.536;6.042;2023-09-12T12:46:30;101377.66;;;28.08;77.71
48404;BME280;34202;52.536;6.042;2023-09-12T12:51:30;101373.95;;;28.22;77.91
48404;BME280;34202;52.536;6.042;2023-09-12T12:56:31;101368.27;;;28.24;77.21
48404;BME280;34202;52.536;6.042;2023-09-12T13:01:36;101369.32;;;28.19;76.01
48404;BME280;34202;52.536;6.042;2023-09-12T13:06:37;101362.74;;;28.15;76.20
48404;BME280;34202;52.536;6.042;2023-09-12T13:11:38;101357.53;;;28.19;75.39
48404;BME280;34202;52.536;6.042;2023-09-12T13:16:38;101357.12;;;28.23;75.19
48404;BME280;34202;52.536;6.042;2023-09-12T13:21:40;101354.58;;;28.20;74.42
48404;BME280;34202;52.536;6.042;2023-09-12T13:26:41;101349.41;;;28.11;73.71
48404;BME280;34202;52.536;6.042;2023-09-12T13:31:42;101350.11;;;28.14;73.35
48404;BME280;34202;52.536;6.042;2023-09-12T13:36:42;101362.45;;;28.11;72.77
48404;BME280;34202;52.536;6.042;2023-09-12T13:41:43;101368.44;;;27.98;71.97
48404;BME280;34202;52.536;6.042;2023-09-12T13:46:45;101365.84;;;27.86;71.56
48404;BME280;34202;52.536;6.042;2023-09-12T13:51:47;101360.00;;;27.75;71.60
48404;BME280;34202;52.536;6.042;2023-09-12T13:56:47;101364.75;;;27.61;71.06
48404;BME280;34202;52.536;6.042;2023-09-12T14:01:48;101361.93;;;27.44;70.64
48404;BME280;34202;52.536;6.042;2023-09-12T14:06:48;101366.08;;;27.21;69.98
48404;BME280;34202;52.536;6.042;2023-09-12T14:11:48;101368.57;;;27.01;70.07
48404;BME280;34202;52.536;6.042;2023-09-12T14:16:49;101362.04;;;26.83;70.41
48404;BME280;34202;52.536;6.042;2023-09-12T14:21:49;101367.52;;;26.70;70.49
48404;BME280;34202;52.536;6.042;2023-09-12T14:26:49;101364.75;;;26.58;70.72
48404;BME280;34202;52.536;6.042;2023-09-12T14:31:50;101369.39;;;26.48;71.33
48404;BME280;34202;52.536;6.042;2023-09-12T14:36:57;101366.05;;;26.36;71.65
48404;BME280;34202;52.536;6.042;2023-09-12T14:41:58;101356.49;;;26.21;71.60
48404;BME280;34202;52.536;6.042;2023-09-12T14:46:58;101344.39;;;26.06;71.89
48404;BME280;34202;52.536;6.042;2023-09-12T14:51:59;101345.67;;;25.94;71.95
48404;BME280;34202;52.536;6.042;2023-09-12T14:57:00;101343.34;;;25.83;72.50
48404;BME280;34202;52.536;6.042;2023-09-12T15:02:00;101337.10;;;25.73;73.37
48404;BME280;34202;52.536;6.042;2023-09-12T15:07:01;101329.11;;;25.64;73.17
48404;BME280;34202;52.536;6.042;2023-09-12T15:12:01;101326.03;;;25.54;72.73
48404;BME280;34202;52.536;6.042;2023-09-12T15:17:02;101325.33;;;25.47;72.30
48404;BME280;34202;52.536;6.042;2023-09-12T15:22:03;101328.13;;;25.41;72.18
48404;BME280;34202;52.536;6.042;2023-09-12T15:27:04;101332.55;;;25.41;72.63
48404;BME280;34202;52.536;6.042;2023-09-12T15:32:05;101332.08;;;25.44;72.94
48404;BME280;34202;52.536;6.042;2023-09-12T15:37:08;101328.63;;;25.49;72.75
48404;BME280;34202;52.536;6.042;2023-09-12T15:42:09;101327.79;;;25.51;72.43
48404;BME280;34202;52.536;6.042;2023-09-12T15:47:09;101328.09;;;25.49;71.93
48404;BME280;34202;52.536;6.042;2023-09-12T15:52:10;101327.25;;;25.44;71.58
48404;BME280;34202;52.536;6.042;2023-09-12T15:57:10;101330.01;;;25.42;71.75
48404;BME280;34202;52.536;6.042;2023-09-12T16:02:13;101324.48;;;25.39;71.48
48404;BME280;34202;52.536;6.042;2023-09-12T16:07:13;101322.02;;;25.34;71.68
48404;BME280;34202;52.536;6.042;2023-09-12T16:12:14;101321.63;;;25.27;72.16
48404;BME280;34202;52.536;6.042;2023-09-12T16:17:14;101319.69;;;25.15;73.30
48404;BME280;34202;52.536;6.042;2023-09-12T16:22:15;101319.18;;;24.95;73.60
48404;BME280;34202;52.536;6.042;2023-09-12T16:27:15;101324.48;;;24.64;74.04
48404;BME280;34202;52.536;6.042;2023-09-12T16:32:17;101333.98;;;24.41;75.12
48404;BME280;34202;52.536;6.042;2023-09-12T16:37:17;101334.12;;;24.17;75.46
48404;BME280;34202;52.536;6.042;2023-09-12T16:42:18;101335.64;;;23.85;76.26
48404;BME280;34202;52.536;6.042;2023-09-12T16:47:18;101341.98;;;23.64;77.10
48404;BME280;34202;52.536;6.042;2023-09-12T16:52:19;101345.17;;;23.41;77.63
48404;BME280;34202;52.536;6.042;2023-09-12T16:57:19;101345.89;;;23.18;78.71
48404;BME280;34202;52.536;6.042;2023-09-12T17:02:19;101352.94;;;23.05;80.03
48404;BME280;34202;52.536;6.042;2023-09-12T17:07:20;101342.39;;;22.87;80.87
48404;BME280;34202;52.536;6.042;2023-09-12T17:12:20;101341.69;;;22.77;82.05
48404;BME280;34202;52.536;6.042;2023-09-12T17:17:21;101347.80;;;22.64;82.93
48404;BME280;34202;52.536;6.042;2023-09-12T17:22:21;101355.12;;;22.53;83.79
48404;BME280;34202;52.536;6.042;2023-09-12T17:27:21;101349.62;;;22.49;84.46
48404;BME280;34202;52.536;6.042;2023-09-12T17:32:22;101349.09;;;22.33;85.12
48404;BME280;34202;52.536;6.042;2023-09-12T17:37:24;101353.73;;;22.15;85.77
48404;BME280;34202;52.536;6.042;2023-09-12T17:42:25;101358.54;;;22.04;86.84
48404;BME280;34202;52.536;6.042;2023-09-12T17:47:25;101359.30;;;21.91;87.68
48404;BME280;34202;52.536;6.042;2023-09-12T17:52:26;101369.41;;;21.79;88.73
48404;BME280;34202;52.536;6.042;2023-09-12T17:57:26;101371.73;;;21.74;89.53
48404;BME280;34202;52.536;6.042;2023-09-12T18:02:27;101377.85;;;21.76;90.22
48404;BME280;34202;52.536;6.042;2023-09-12T18:07:28;101379.68;;;21.74;90.77
48404;BME280;34202;52.536;6.042;2023-09-12T18:12:28;101373.82;;;21.74;91.28
48404;BME280;34202;52.536;6.042;2023-09-12T18:17:29;101372.52;;;21.66;91.67
48404;BME280;34202;52.536;6.042;2023-09-12T18:22:30;101377.36;;;21.52;92.30
48404;BME280;34202;52.536;6.042;2023-09-12T18:27:30;101379.75;;;21.43;92.99
48404;BME280;34202;52.536;6.042;2023-09-12T18:32:31;101389.67;;;21.29;93.36
48404;BME280;34202;52.536;6.042;2023-09-12T18:37:31;101394.48;;;21.16;94.09
48404;BME280;34202;52.536;6.042;2023-09-12T18:42:32;101397.45;;;21.05;94.72
48404;BME280;34202;52.536;6.042;2023-09-12T18:47:33;101400.05;;;21.01;95.32
48404;BME280;34202;52.536;6.042;2023-09-12T18:52:33;101405.05;;;20.99;95.79
48404;BME280;34202;52.536;6.042;2023-09-12T18:57:34;101406.20;;;20.96;96.06
48404;BME280;34202;52.536;6.042;2023-09-12T19:02:34;101405.65;;;20.90;96.32
48404;BME280;34202;52.536;6.042;2023-09-12T19:07:35;101401.96;;;20.82;96.65
48404;BME280;34202;52.536;6.042;2023-09-12T19:12:36;101398.21;;;20.71;97.17
48404;BME280;34202;52.536;6.042;2023-09-12T19:17:36;101400.34;;;20.64;97.73
48404;BME280;34202;52.536;6.042;2023-09-12T19:22:37;101405.42;;;20.58;98.42
48404;BME280;34202;52.536;6.042;2023-09-12T19:27:38;101404.02;;;20.51;98.86
48404;BME280;34202;52.536;6.042;2023-09-12T19:32:40;101401.70;;;20.44;99.42
48404;BME280;34202;52.536;6.042;2023-09-12T19:37:40;101399.46;;;20.42;99.85
48404;BME280;34202;52.536;6.042;2023-09-12T19:42:45;101392.92;;;20.42;100.00
48404;BME280;34202;52.536;6.042;2023-09-12T19:47:46;101392.27;;;20.39;100.00
48404;BME280;34202;52.536;6.042;2023-09-12T19:52:46;101393.41;;;20.36;100.00
48404;BME280;34202;52.536;6.042;2023-09-12T19:57:47;101386.90;;;20.35;100.00
48404;BME280;34202;52.536;6.042;2023-09-12T20:02:47;101389.59;;;20.34;100.00
48404;BME280;34202;52.536;6.042;2023-09-12T20:07:49;101387.10;;;20.27;100.00
48404;BME280;34202;52.536;6.042;2023-09-12T20:12:50;101385.31;;;20.21;100.00
48404;BME280;34202;52.536;6.042;2023-09-12T20:17:51;101382.92;;;20.17;100.00
48404;BME280;34202;52.536;6.042;2023-09-12T20:23:04;101377.98;;;20.17;100.00
48404;BME280;34202;52.536;6.042;2023-09-12T20:28:05;101372.25;;;20.13;100.00
48404;BME280;34202;52.536;6.042;2023-09-12T20:33:05;101371.11;;;20.09;100.00
48404;BME280;34202;52.536;6.042;2023-09-12T20:38:06;101369.20;;;20.08;100.00
48404;BME280;34202;52.536;6.042;2023-09-12T20:43:06;101372.00;;;20.09;100.00
48404;BME280;34202;52.536;6.042;2023-09-12T20:48:07;101376.58;;;20.09;100.00
48404;BME280;34202;52.536;6.042;2023-09-12T20:53:08;101381.72;;;20.09;100.00
48404;BME280;34202;52.536;6.042;2023-09-12T20:58:13;101372.98;;;20.05;100.00
48404;BME280;34202;52.536;6.042;2023-09-12T21:03:14;101370.94;;;20.02;100.00
48404;BME280;34202;52.536;6.042;2023-09-12T21:08:14;101370.81;;;19.99;100.00
48404;BME280;34202;52.536;6.042;2023-09-12T21:13:14;101365.23;;;19.96;100.00
48404;BME280;34202;52.536;6.042;2023-09-12T21:18:16;101371.46;;;19.95;100.00
48404;BME280;34202;52.536;6.042;2023-09-12T21:23:17;101369.77;;;19.92;100.00
48404;BME280;34202;52.536;6.042;2023-09-12T21:28:17;101374.71;;;19.91;100.00
48404;BME280;34202;52.536;6.042;2023-09-12T21:33:18;101382.37;;;19.89;100.00
48404;BME280;34202;52.536;6.042;2023-09-12T21:38:19;101376.62;;;19.86;100.00
48404;BME280;34202;52.536;6.042;2023-09-12T21:43:19;101379.45;;;19.86;100.00
48404;BME280;34202;52.536;6.042;2023-09-12T21:48:20;101382.05;;;19.87;100.00
48404;BME280;34202;52.536;6.042;2023-09-12T21:53:20;101388.76;;;19.87;100.00
48404;BME280;34202;52.536;6.042;2023-09-12T21:58:21;101396.48;;;19.89;100.00
48404;BME280;34202;52.536;6.042;2023-09-12T22:03:21;101398.09;;;19.89;100.00
48404;BME280;34202;52.536;6.042;2023-09-12T22:08:23;101400.84;;;19.85;100.00
48404;BME280;34202;52.536;6.042;2023-09-12T22:13:24;101395.98;;;19.80;100.00
48404;BME280;34202;52.536;6.042;2023-09-12T22:18:25;101389.29;;;19.80;100.00
48404;BME280;34202;52.536;6.042;2023-09-12T22:23:25;101381.40;;;19.78;100.00
48404;BME280;34202;52.536;6.042;2023-09-12T22:28:25;101380.23;;;19.75;100.00
48404;BME280;34202;52.536;6.042;2023-09-12T22:33:26;101380.98;;;19.71;100.00
48404;BME280;34202;52.536;6.042;2023-09-12T22:38:26;101384.11;;;19.65;100.00
48404;BME280;34202;52.536;6.042;2023-09-12T22:43:27;101382.45;;;19.53;100.00
48404;BME280;34202;52.536;6.042;2023-09-12T22:48:27;101384.37;;;19.45;100.00
48404;BME280;34202;52.536;6.042;2023-09-12T22:53:27;101385.58;;;19.46;100.00
48404;BME280;34202;52.536;6.042;2023-09-12T22:58:28;101389.67;;;19.45;100.00
48404;BME280;34202;52.536;6.042;2023-09-12T23:03:29;101392.09;;;19.40;100.00
48404;BME280;34202;52.536;6.042;2023-09-12T23:08:29;101390.84;;;19.32;100.00
48404;BME280;34202;52.536;6.042;2023-09-12T23:13:30;101388.79;;;19.28;100.00
48404;BME280;34202;52.536;6.042;2023-09-12T23:18:31;101391.88;;;19.24;100.00
48404;BME280;34202;52.536;6.042;2023-09-12T23:23:32;101388.19;;;19.23;100.00
48404;BME280;34202;52.536;6.042;2023-09-12T23:28:32;101382.91;;;19.22;100.00
48404;BME280;34202;52.536;6.042;2023-09-12T23:33:32;101375.45;;;19.25;100.00
48404;BME280;34202;52.536;6.042;2023-09-12T23:38:33;101374.45;;;19.22;100.00
48404;BME280;34202;52.536;6.042;2023-09-12T23:43:33;101376.02;;;19.14;100.00
48404;BME280;34202;52.536;6.042;2023-09-12T23:48:33;101368.88;;;19.10;100.00
48404;BME280;34202;52.536;6.042;2023-09-12T23:53:34;101365.73;;;19.08;100.00
48404;BME280;34202;52.536;6.042;2023-09-12T23:58:34;101360.63;;;19.08;100.00
